sensor_id;sensor_type;location;lat;lon;timestamp;pressure;altitude;pressure_sealevel;temperature;humidity
77626;BME280;66794;43.764;10.436;2023-06-10T00:02:04;101567.72;;;21.69;100.00
77626;BME280;66794;43.764;10.436;2023-06-10T00:04:29;101563.00;;;21.76;100.00
77626;BME280;66794;43.764;10.436;2023-06-10T00:06:55;101545.28;;;21.84;100.00
77626;BME280;66794;43.764;10.436;2023-06-10T00:09:20;101562.91;;;21.83;100.00
77626;BME280;66794;43.764;10.436;2023-06-10T00:11:47;101572.16;;;21.88;100.00
77626;BME280;66794;43.764;10.436;2023-06-10T00:14:13;101556.88;;;21.56;100.00
77626;BME280;66794;43.764;10.436;2023-06-10T00:16:39;101556.19;;;21.60;100.00
77626;BME280;66794;43.764;10.436;2023-06-10T00:19:04;101573.69;;;21.84;100.00
77626;BME280;66794;43.764;10.436;2023-06-10T00:21:31;101570.56;;;21.62;100.00
77626;BME280;66794;43.764;10.436;2023-06-10T00:24:08;101568.56;;;21.51;100.00
77626;BME280;66794;43.764;10.436;2023-06-10T00:26:40;101550.66;;;21.60;100.00
77626;BME280;66794;43.764;10.436;2023-06-10T00:29:07;101574.72;;;21.71;100.00
77626;BME280;66794;43.764;10.436;2023-06-10T00:31:37;101573.25;;;21.69;100.00
77626;BME280;66794;43.764;10.436;2023-06-10T00:34:02;101556.88;;;21.56;100.00
77626;BME280;66794;43.764;10.436;2023-06-10T00:36:28;101548.38;;;21.75;100.00
77626;BME280;66794;43.764;10.436;2023-06-10T00:38:54;101542.91;;;21.87;100.00
77626;BME280;66794;43.764;10.436;2023-06-10T00:41:19;101546.84;;;21.61;100.00
77626;BME280;66794;43.764;10.436;2023-06-10T00:43:45;101527.31;;;21.44;100.00
77626;BME280;66794;43.764;10.436;2023-06-10T00:46:11;101535.88;;;21.36;100.00
77626;BME280;66794;43.764;10.436;2023-06-10T00:48:38;101548.00;;;21.53;100.00
77626;BME280;66794;43.764;10.436;2023-06-10T00:51:05;101542.63;;;21.40;100.00
77626;BME280;66794;43.764;10.436;2023-06-10T00:53:30;101527.81;;;21.16;100.00
77626;BME280;66794;43.764;10.436;2023-06-10T00:55:57;101535.00;;;21.17;100.00
77626;BME280;66794;43.764;10.436;2023-06-10T00:58:23;101544.13;;;21.36;100.00
77626;BME280;66794;43.764;10.436;2023-06-10T01:00:49;101538.19;;;21.39;100.00
77626;BME280;66794;43.764;10.436;2023-06-10T01:03:15;101522.63;;;21.26;100.00
77626;BME280;66794;43.764;10.436;2023-06-10T01:05:42;101520.72;;;21.27;100.00
77626;BME280;66794;43.764;10.436;2023-06-10T01:10:53;101531.06;;;21.32;100.00
77626;BME280;66794;43.764;10.436;2023-06-10T01:13:22;101544.63;;;21.51;100.00
77626;BME280;66794;43.764;10.436;2023-06-10T01:15:57;101527.88;;;21.53;100.00
77626;BME280;66794;43.764;10.436;2023-06-10T01:18:22;101537.66;;;21.49;100.00
77626;BME280;66794;43.764;10.436;2023-06-10T01:20:48;101526.47;;;21.44;100.00
77626;BME280;66794;43.764;10.436;2023-06-10T01:23:15;101510.47;;;21.52;100.00
77626;BME280;66794;43.764;10.436;2023-06-10T01:26:02;101527.72;;;21.48;100.00
77626;BME280;66794;43.764;10.436;2023-06-10T01:28:44;101522.66;;;21.20;100.00
77626;BME280;66794;43.764;10.436;2023-06-10T01:31:48;101527.44;;;21.31;100.00
77626;BME280;66794;43.764;10.436;2023-06-10T01:34:17;101521.06;;;21.37;100.00
77626;BME280;66794;43.764;10.436;2023-06-10T01:36:46;101505.00;;;21.27;100.00
77626;BME280;66794;43.764;10.436;2023-06-10T01:39:14;101506.50;;;21.30;100.00
77626;BME280;66794;43.764;10.436;2023-06-10T01:41:40;101519.44;;;21.30;100.00
77626;BME280;66794;43.764;10.436;2023-06-10T01:44:05;101523.06;;;21.23;100.00
77626;BME280;66794;43.764;10.436;2023-06-10T01:46:31;101515.88;;;21.22;100.00
77626;BME280;66794;43.764;10.436;2023-06-10T01:48:56;101498.72;;;21.02;100.00
77626;BME280;66794;43.764;10.436;2023-06-10T01:51:22;101515.38;;;21.32;100.00
77626;BME280;66794;43.764;10.436;2023-06-10T01:53:47;101507.22;;;21.19;100.00
77626;BME280;66794;43.764;10.436;2023-06-10T01:56:13;101507.63;;;21.22;100.00
77626;BME280;66794;43.764;10.436;2023-06-10T01:58:48;101493.09;;;21.15;100.00
77626;BME280;66794;43.764;10.436;2023-06-10T02:01:13;101503.03;;;21.16;100.00
77626;BME280;66794;43.764;10.436;2023-06-10T02:03:39;101504.44;;;21.00;100.00
77626;BME280;66794;43.764;10.436;2023-06-10T02:06:05;101505.63;;;21.11;100.00
77626;BME280;66794;43.764;10.436;2023-06-10T02:08:30;101497.53;;;20.91;100.00
77626;BME280;66794;43.764;10.436;2023-06-10T02:10:56;101501.22;;;21.04;100.00
77626;BME280;66794;43.764;10.436;2023-06-10T02:13:21;101511.81;;;21.07;100.00
77626;BME280;66794;43.764;10.436;2023-06-10T02:15:47;101499.53;;;20.84;100.00
77626;BME280;66794;43.764;10.436;2023-06-10T02:18:12;101499.63;;;20.96;100.00
77626;BME280;66794;43.764;10.436;2023-06-10T02:20:38;101486.38;;;20.86;100.00
77626;BME280;66794;43.764;10.436;2023-06-10T02:23:03;101489.59;;;21.01;100.00
77626;BME280;66794;43.764;10.436;2023-06-10T02:25:29;101503.28;;;20.90;100.00
77626;BME280;66794;43.764;10.436;2023-06-10T02:27:54;101497.09;;;20.94;100.00
77626;BME280;66794;43.764;10.436;2023-06-10T02:30:20;101494.13;;;20.96;100.00
77626;BME280;66794;43.764;10.436;2023-06-10T02:32:46;101510.31;;;20.86;100.00
77626;BME280;66794;43.764;10.436;2023-06-10T02:35:14;101502.34;;;20.78;100.00
77626;BME280;66794;43.764;10.436;2023-06-10T02:37:40;101496.13;;;20.82;100.00
77626;BME280;66794;43.764;10.436;2023-06-10T02:40:06;101516.97;;;20.96;100.00
77626;BME280;66794;43.764;10.436;2023-06-10T02:42:31;101511.38;;;20.85;100.00
77626;BME280;66794;43.764;10.436;2023-06-10T02:44:57;101518.91;;;20.96;100.00
77626;BME280;66794;43.764;10.436;2023-06-10T02:47:22;101513.22;;;20.91;100.00
77626;BME280;66794;43.764;10.436;2023-06-10T02:49:47;101529.47;;;20.99;100.00
77626;BME280;66794;43.764;10.436;2023-06-10T02:52:13;101512.16;;;20.92;100.00
77626;BME280;66794;43.764;10.436;2023-06-10T02:54:38;101514.75;;;20.87;100.00
77626;BME280;66794;43.764;10.436;2023-06-10T02:57:05;101500.94;;;20.93;100.00
77626;BME280;66794;43.764;10.436;2023-06-10T02:59:31;101516.81;;;20.91;100.00
77626;BME280;66794;43.764;10.436;2023-06-10T03:01:57;101516.53;;;20.99;100.00
77626;BME280;66794;43.764;10.436;2023-06-10T03:04:22;101506.94;;;20.84;100.00
77626;BME280;66794;43.764;10.436;2023-06-10T03:06:48;101504.47;;;20.75;100.00
77626;BME280;66794;43.764;10.436;2023-06-10T03:09:14;101518.97;;;20.89;100.00
77626;BME280;66794;43.764;10.436;2023-06-10T03:11:40;101514.53;;;20.88;100.00
77626;BME280;66794;43.764;10.436;2023-06-10T03:14:05;101517.13;;;20.83;100.00
77626;BME280;66794;43.764;10.436;2023-06-10T03:16:30;101500.03;;;20.74;100.00
77626;BME280;66794;43.764;10.436;2023-06-10T03:18:56;101496.84;;;20.78;100.00
77626;BME280;66794;43.764;10.436;2023-06-10T03:21:22;101495.59;;;20.48;100.00
77626;BME280;66794;43.764;10.436;2023-06-10T03:23:47;101509.66;;;20.34;100.00
77626;BME280;66794;43.764;10.436;2023-06-10T03:26:13;101510.25;;;20.36;100.00
77626;BME280;66794;43.764;10.436;2023-06-10T03:28:40;101494.88;;;20.28;100.00
77626;BME280;66794;43.764;10.436;2023-06-10T03:31:06;101495.81;;;20.47;100.00
77626;BME280;66794;43.764;10.436;2023-06-10T03:33:31;101501.72;;;20.51;100.00
77626;BME280;66794;43.764;10.436;2023-06-10T03:35:57;101490.56;;;20.39;100.00
77626;BME280;66794;43.764;10.436;2023-06-10T03:38:23;101489.75;;;20.32;100.00
77626;BME280;66794;43.764;10.436;2023-06-10T03:40:48;101494.19;;;20.33;100.00
77626;BME280;66794;43.764;10.436;2023-06-10T03:43:14;101501.59;;;20.39;100.00
77626;BME280;66794;43.764;10.436;2023-06-10T03:45:39;101507.16;;;20.26;100.00
77626;BME280;66794;43.764;10.436;2023-06-10T03:48:06;101516.03;;;19.96;100.00
77626;BME280;66794;43.764;10.436;2023-06-10T03:50:33;101481.13;;;19.96;100.00
77626;BME280;66794;43.764;10.436;2023-06-10T03:52:58;101503.69;;;20.05;100.00
77626;BME280;66794;43.764;10.436;2023-06-10T03:55:24;101486.69;;;19.83;100.00
77626;BME280;66794;43.764;10.436;2023-06-10T03:57:50;101502.97;;;20.16;100.00
77626;BME280;66794;43.764;10.436;2023-06-10T04:00:16;101519.75;;;20.08;100.00
77626;BME280;66794;43.764;10.436;2023-06-10T04:02:42;101505.91;;;20.21;100.00
77626;BME280;66794;43.764;10.436;2023-06-10T04:05:18;101501.34;;;20.09;100.00
77626;BME280;66794;43.764;10.436;2023-06-10T04:07:44;101497.16;;;20.00;100.00
77626;BME280;66794;43.764;10.436;2023-06-10T04:10:13;101508.44;;;19.91;100.00
77626;BME280;66794;43.764;10.436;2023-06-10T04:12:38;101501.16;;;19.65;100.00
77626;BME280;66794;43.764;10.436;2023-06-10T04:15:04;101514.59;;;19.87;100.00
77626;BME280;66794;43.764;10.436;2023-06-10T04:17:30;101515.09;;;20.09;100.00
77626;BME280;66794;43.764;10.436;2023-06-10T04:19:56;101517.97;;;20.20;100.00
77626;BME280;66794;43.764;10.436;2023-06-10T04:22:22;101499.13;;;20.24;100.00
77626;BME280;66794;43.764;10.436;2023-06-10T04:24:48;101514.75;;;20.30;100.00
77626;BME280;66794;43.764;10.436;2023-06-10T04:27:14;101493.03;;;20.15;100.00
77626;BME280;66794;43.764;10.436;2023-06-10T04:29:43;101497.78;;;20.33;100.00
77626;BME280;66794;43.764;10.436;2023-06-10T04:32:10;101509.38;;;20.42;100.00
77626;BME280;66794;43.764;10.436;2023-06-10T04:34:36;101500.50;;;20.40;100.00
77626;BME280;66794;43.764;10.436;2023-06-10T04:37:04;101508.75;;;20.46;100.00
77626;BME280;66794;43.764;10.436;2023-06-10T04:39:30;101505.69;;;20.55;100.00
77626;BME280;66794;43.764;10.436;2023-06-10T04:41:55;101502.78;;;20.49;100.00
77626;BME280;66794;43.764;10.436;2023-06-10T04:44:21;101524.97;;;20.55;100.00
77626;BME280;66794;43.764;10.436;2023-06-10T04:46:47;101519.00;;;20.26;100.00
77626;BME280;66794;43.764;10.436;2023-06-10T04:49:13;101488.75;;;20.26;100.00
77626;BME280;66794;43.764;10.436;2023-06-10T04:51:41;101517.19;;;20.45;100.00
77626;BME280;66794;43.764;10.436;2023-06-10T04:54:06;101516.34;;;20.44;100.00
77626;BME280;66794;43.764;10.436;2023-06-10T04:56:32;101524.59;;;20.44;100.00
77626;BME280;66794;43.764;10.436;2023-06-10T04:58:58;101509.47;;;20.29;100.00
77626;BME280;66794;43.764;10.436;2023-06-10T05:01:23;101525.28;;;20.33;100.00
77626;BME280;66794;43.764;10.436;2023-06-10T05:03:49;101514.13;;;20.28;100.00
77626;BME280;66794;43.764;10.436;2023-06-10T05:06:15;101527.38;;;20.38;100.00
77626;BME280;66794;43.764;10.436;2023-06-10T05:08:40;101515.22;;;20.20;100.00
77626;BME280;66794;43.764;10.436;2023-06-10T05:11:06;101540.63;;;20.22;100.00
77626;BME280;66794;43.764;10.436;2023-06-10T05:13:31;101532.03;;;20.37;100.00
77626;BME280;66794;43.764;10.436;2023-06-10T05:15:57;101518.28;;;20.37;100.00
77626;BME280;66794;43.764;10.436;2023-06-10T05:18:23;101540.09;;;20.39;100.00
77626;BME280;66794;43.764;10.436;2023-06-10T05:20:48;101523.84;;;20.31;100.00
77626;BME280;66794;43.764;10.436;2023-06-10T05:23:14;101532.84;;;20.44;100.00
77626;BME280;66794;43.764;10.436;2023-06-10T05:25:40;101517.69;;;20.35;100.00
77626;BME280;66794;43.764;10.436;2023-06-10T05:28:06;101522.72;;;20.38;100.00
77626;BME280;66794;43.764;10.436;2023-06-10T05:30:35;101524.19;;;20.09;100.00
77626;BME280;66794;43.764;10.436;2023-06-10T05:33:01;101530.09;;;20.13;100.00
77626;BME280;66794;43.764;10.436;2023-06-10T05:35:26;101533.50;;;20.08;100.00
77626;BME280;66794;43.764;10.436;2023-06-10T05:37:52;101534.53;;;20.14;100.00
77626;BME280;66794;43.764;10.436;2023-06-10T05:40:17;101518.34;;;19.92;100.00
77626;BME280;66794;43.764;10.436;2023-06-10T05:42:43;101515.56;;;19.99;100.00
77626;BME280;66794;43.764;10.436;2023-06-10T05:45:09;101515.81;;;20.29;100.00
77626;BME280;66794;43.764;10.436;2023-06-10T05:47:34;101507.47;;;20.42;100.00
77626;BME280;66794;43.764;10.436;2023-06-10T05:50:00;101519.06;;;19.81;100.00
77626;BME280;66794;43.764;10.436;2023-06-10T05:52:25;101527.34;;;19.68;100.00
77626;BME280;66794;43.764;10.436;2023-06-10T05:54:51;101550.19;;;19.62;100.00
77626;BME280;66794;43.764;10.436;2023-06-10T05:57:17;101533.47;;;19.70;100.00
77626;BME280;66794;43.764;10.436;2023-06-10T05:59:42;101509.75;;;19.11;100.00
77626;BME280;66794;43.764;10.436;2023-06-10T06:02:08;101530.84;;;19.24;100.00
77626;BME280;66794;43.764;10.436;2023-06-10T06:04:34;101534.22;;;19.26;100.00
77626;BME280;66794;43.764;10.436;2023-06-10T06:07:00;101548.63;;;19.14;100.00
77626;BME280;66794;43.764;10.436;2023-06-10T06:09:25;101553.78;;;19.56;100.00
77626;BME280;66794;43.764;10.436;2023-06-10T06:11:50;101542.59;;;19.51;100.00
77626;BME280;66794;43.764;10.436;2023-06-10T06:14:16;101537.53;;;19.48;100.00
77626;BME280;66794;43.764;10.436;2023-06-10T06:16:41;101532.75;;;19.23;100.00
77626;BME280;66794;43.764;10.436;2023-06-10T06:19:08;101540.31;;;19.34;100.00
77626;BME280;66794;43.764;10.436;2023-06-10T06:21:34;101541.41;;;19.13;100.00
77626;BME280;66794;43.764;10.436;2023-06-10T06:24:00;101544.13;;;19.33;100.00
77626;BME280;66794;43.764;10.436;2023-06-10T06:26:25;101553.00;;;19.29;100.00
77626;BME280;66794;43.764;10.436;2023-06-10T06:28:52;101555.13;;;19.27;100.00
77626;BME280;66794;43.764;10.436;2023-06-10T06:31:17;101571.19;;;19.16;100.00
77626;BME280;66794;43.764;10.436;2023-06-10T06:33:43;101566.97;;;19.27;100.00
77626;BME280;66794;43.764;10.436;2023-06-10T06:36:08;101577.50;;;19.24;100.00
77626;BME280;66794;43.764;10.436;2023-06-10T06:38:34;101552.16;;;19.28;100.00
77626;BME280;66794;43.764;10.436;2023-06-10T06:40:59;101561.03;;;19.37;100.00
77626;BME280;66794;43.764;10.436;2023-06-10T06:43:29;101564.84;;;19.23;100.00
77626;BME280;66794;43.764;10.436;2023-06-10T06:45:57;101562.75;;;19.11;100.00
77626;BME280;66794;43.764;10.436;2023-06-10T06:48:22;101572.25;;;18.96;100.00
77626;BME280;66794;43.764;10.436;2023-06-10T06:50:48;101568.47;;;18.90;100.00
77626;BME280;66794;43.764;10.436;2023-06-10T06:53:13;101574.19;;;18.82;100.00
77626;BME280;66794;43.764;10.436;2023-06-10T06:55:39;101557.69;;;18.95;100.00
77626;BME280;66794;43.764;10.436;2023-06-10T06:58:04;101566.16;;;19.00;100.00
77626;BME280;66794;43.764;10.436;2023-06-10T07:00:30;101559.38;;;19.09;100.00
77626;BME280;66794;43.764;10.436;2023-06-10T07:02:56;101561.91;;;19.17;100.00
77626;BME280;66794;43.764;10.436;2023-06-10T07:05:22;101560.75;;;19.52;100.00
77626;BME280;66794;43.764;10.436;2023-06-10T07:07:48;101558.47;;;19.49;100.00
77626;BME280;66794;43.764;10.436;2023-06-10T07:10:20;101543.69;;;19.30;100.00
77626;BME280;66794;43.764;10.436;2023-06-10T07:12:47;101541.34;;;19.53;100.00
77626;BME280;66794;43.764;10.436;2023-06-10T07:15:13;101550.41;;;19.60;100.00
77626;BME280;66794;43.764;10.436;2023-06-10T07:17:39;101549.13;;;19.69;100.00
77626;BME280;66794;43.764;10.436;2023-06-10T07:20:04;101532.38;;;19.78;100.00
77626;BME280;66794;43.764;10.436;2023-06-10T07:22:30;101547.72;;;19.99;100.00
77626;BME280;66794;43.764;10.436;2023-06-10T07:24:56;101562.25;;;20.12;100.00
77626;BME280;66794;43.764;10.436;2023-06-10T07:27:21;101556.38;;;20.40;100.00
77626;BME280;66794;43.764;10.436;2023-06-10T07:29:47;101548.28;;;20.45;100.00
77626;BME280;66794;43.764;10.436;2023-06-10T07:32:12;101537.59;;;20.31;100.00
77626;BME280;66794;43.764;10.436;2023-06-10T07:34:37;101554.75;;;20.64;100.00
77626;BME280;66794;43.764;10.436;2023-06-10T07:37:03;101550.25;;;20.70;100.00
77626;BME280;66794;43.764;10.436;2023-06-10T07:39:28;101549.34;;;20.76;100.00
77626;BME280;66794;43.764;10.436;2023-06-10T07:41:54;101542.41;;;20.73;100.00
77626;BME280;66794;43.764;10.436;2023-06-10T07:44:22;101519.34;;;20.93;100.00
77626;BME280;66794;43.764;10.436;2023-06-10T07:46:47;101544.03;;;21.24;100.00
77626;BME280;66794;43.764;10.436;2023-06-10T07:49:13;101513.03;;;21.29;100.00
77626;BME280;66794;43.764;10.436;2023-06-10T07:51:38;101520.72;;;21.45;100.00
77626;BME280;66794;43.764;10.436;2023-06-10T07:54:04;101516.97;;;21.40;100.00
77626;BME280;66794;43.764;10.436;2023-06-10T07:56:29;101526.63;;;21.49;100.00
77626;BME280;66794;43.764;10.436;2023-06-10T07:58:54;101518.97;;;21.51;100.00
77626;BME280;66794;43.764;10.436;2023-06-10T08:01:20;101504.28;;;21.39;100.00
77626;BME280;66794;43.764;10.436;2023-06-10T08:03:45;101514.94;;;21.84;100.00
77626;BME280;66794;43.764;10.436;2023-06-10T08:06:11;101505.09;;;21.76;100.00
77626;BME280;66794;43.764;10.436;2023-06-10T08:08:37;101498.81;;;21.69;100.00
77626;BME280;66794;43.764;10.436;2023-06-10T08:11:07;101487.78;;;21.69;100.00
77626;BME280;66794;43.764;10.436;2023-06-10T08:13:51;101511.41;;;21.95;100.00
77626;BME280;66794;43.764;10.436;2023-06-10T08:16:35;101509.41;;;22.02;100.00
77626;BME280;66794;43.764;10.436;2023-06-10T08:19:21;101501.03;;;21.78;100.00
77626;BME280;66794;43.764;10.436;2023-06-10T08:22:07;101515.97;;;22.01;100.00
77626;BME280;66794;43.764;10.436;2023-06-10T08:24:53;101500.97;;;22.15;100.00
77626;BME280;66794;43.764;10.436;2023-06-10T08:27:38;101498.06;;;22.40;100.00
77626;BME280;66794;43.764;10.436;2023-06-10T08:30:24;101490.09;;;22.32;100.00
77626;BME280;66794;43.764;10.436;2023-06-10T08:33:10;101489.53;;;22.53;100.00
77626;BME280;66794;43.764;10.436;2023-06-10T08:35:56;101455.31;;;22.43;100.00
77626;BME280;66794;43.764;10.436;2023-06-10T08:38:41;101476.38;;;23.14;100.00
77626;BME280;66794;43.764;10.436;2023-06-10T08:41:35;101481.06;;;23.54;100.00
77626;BME280;66794;43.764;10.436;2023-06-10T08:44:30;101478.31;;;23.02;100.00
77626;BME280;66794;43.764;10.436;2023-06-10T08:47:17;101485.66;;;23.60;100.00
77626;BME280;66794;43.764;10.436;2023-06-10T08:50:04;101489.00;;;23.74;100.00
77626;BME280;66794;43.764;10.436;2023-06-10T08:52:54;101475.16;;;23.74;100.00
77626;BME280;66794;43.764;10.436;2023-06-10T08:55:44;101454.03;;;23.68;100.00
77626;BME280;66794;43.764;10.436;2023-06-10T08:58:32;101461.72;;;23.94;100.00
77626;BME280;66794;43.764;10.436;2023-06-10T09:01:27;101470.72;;;24.01;100.00
77626;BME280;66794;43.764;10.436;2023-06-10T09:04:14;101441.22;;;24.07;100.00
77626;BME280;66794;43.764;10.436;2023-06-10T09:07:02;101455.13;;;24.12;100.00
77626;BME280;66794;43.764;10.436;2023-06-10T09:09:49;101450.84;;;24.04;100.00
77626;BME280;66794;43.764;10.436;2023-06-10T09:12:35;101467.53;;;23.93;100.00
77626;BME280;66794;43.764;10.436;2023-06-10T09:15:21;101473.28;;;24.20;100.00
77626;BME280;66794;43.764;10.436;2023-06-10T09:18:07;101462.91;;;24.77;100.00
77626;BME280;66794;43.764;10.436;2023-06-10T09:20:53;101474.63;;;24.84;100.00
77626;BME280;66794;43.764;10.436;2023-06-10T09:23:39;101472.81;;;24.56;100.00
77626;BME280;66794;43.764;10.436;2023-06-10T09:26:28;101475.63;;;24.28;100.00
77626;BME280;66794;43.764;10.436;2023-06-10T09:29:15;101463.81;;;24.32;100.00
77626;BME280;66794;43.764;10.436;2023-06-10T09:32:01;101471.66;;;24.24;100.00
77626;BME280;66794;43.764;10.436;2023-06-10T09:34:47;101463.41;;;24.74;100.00
77626;BME280;66794;43.764;10.436;2023-06-10T09:37:38;101458.53;;;24.81;100.00
77626;BME280;66794;43.764;10.436;2023-06-10T09:40:24;101452.38;;;24.96;100.00
77626;BME280;66794;43.764;10.436;2023-06-10T09:43:10;101413.25;;;24.54;100.00
77626;BME280;66794;43.764;10.436;2023-06-10T09:45:58;101444.72;;;25.03;100.00
77626;BME280;66794;43.764;10.436;2023-06-10T09:48:46;101443.59;;;25.21;100.00
77626;BME280;66794;43.764;10.436;2023-06-10T09:51:32;101446.13;;;24.67;100.00
77626;BME280;66794;43.764;10.436;2023-06-10T09:54:18;101457.84;;;24.91;100.00
77626;BME280;66794;43.764;10.436;2023-06-10T09:57:07;101455.44;;;24.61;100.00
77626;BME280;66794;43.764;10.436;2023-06-10T09:59:53;101434.47;;;24.48;100.00
77626;BME280;66794;43.764;10.436;2023-06-10T10:02:50;101452.63;;;24.27;100.00
77626;BME280;66794;43.764;10.436;2023-06-10T10:05:36;101455.78;;;24.48;100.00
77626;BME280;66794;43.764;10.436;2023-06-10T10:08:22;101447.69;;;24.29;100.00
77626;BME280;66794;43.764;10.436;2023-06-10T10:11:08;101459.38;;;24.03;100.00
77626;BME280;66794;43.764;10.436;2023-06-10T10:13:54;101466.38;;;23.77;100.00
77626;BME280;66794;43.764;10.436;2023-06-10T10:16:41;101471.66;;;24.07;100.00
77626;BME280;66794;43.764;10.436;2023-06-10T10:19:30;101470.19;;;23.87;100.00
77626;BME280;66794;43.764;10.436;2023-06-10T10:22:25;101466.28;;;24.00;100.00
77626;BME280;66794;43.764;10.436;2023-06-10T10:25:16;101462.38;;;23.84;100.00
77626;BME280;66794;43.764;10.436;2023-06-10T10:28:10;101468.72;;;23.56;100.00
77626;BME280;66794;43.764;10.436;2023-06-10T10:31:02;101470.63;;;23.68;100.00
77626;BME280;66794;43.764;10.436;2023-06-10T10:33:58;101470.41;;;23.46;100.00
77626;BME280;66794;43.764;10.436;2023-06-10T10:36:45;101490.13;;;22.55;100.00
77626;BME280;66794;43.764;10.436;2023-06-10T10:39:33;101491.38;;;22.18;100.00
77626;BME280;66794;43.764;10.436;2023-06-10T10:42:19;101476.06;;;21.73;100.00
77626;BME280;66794;43.764;10.436;2023-06-10T10:45:06;101508.53;;;21.71;100.00
77626;BME280;66794;43.764;10.436;2023-06-10T10:47:54;101503.81;;;21.42;100.00
77626;BME280;66794;43.764;10.436;2023-06-10T10:50:41;101498.16;;;21.37;100.00
77626;BME280;66794;43.764;10.436;2023-06-10T10:53:27;101501.06;;;21.42;100.00
77626;BME280;66794;43.764;10.436;2023-06-10T10:56:15;101509.63;;;21.34;100.00
77626;BME280;66794;43.764;10.436;2023-06-10T10:59:03;101496.19;;;21.19;100.00
77626;BME280;66794;43.764;10.436;2023-06-10T11:01:50;101524.25;;;21.09;100.00
77626;BME280;66794;43.764;10.436;2023-06-10T11:04:36;101522.72;;;20.95;100.00
77626;BME280;66794;43.764;10.436;2023-06-10T11:07:24;101527.22;;;20.89;100.00
77626;BME280;66794;43.764;10.436;2023-06-10T11:10:13;101527.72;;;20.55;100.00
77626;BME280;66794;43.764;10.436;2023-06-10T11:13:00;101526.19;;;20.59;100.00
77626;BME280;66794;43.764;10.436;2023-06-10T11:15:47;101508.28;;;20.43;100.00
77626;BME280;66794;43.764;10.436;2023-06-10T11:18:39;101518.28;;;20.69;100.00
77626;BME280;66794;43.764;10.436;2023-06-10T11:21:25;101511.53;;;20.65;100.00
77626;BME280;66794;43.764;10.436;2023-06-10T11:24:12;101512.28;;;20.79;100.00
77626;BME280;66794;43.764;10.436;2023-06-10T11:27:19;101524.41;;;20.96;100.00
77626;BME280;66794;43.764;10.436;2023-06-10T11:32:52;101519.31;;;21.18;100.00
77626;BME280;66794;43.764;10.436;2023-06-10T11:35:38;101517.38;;;21.43;100.00
77626;BME280;66794;43.764;10.436;2023-06-10T11:38:25;101504.41;;;21.62;100.00
77626;BME280;66794;43.764;10.436;2023-06-10T11:41:14;101497.59;;;21.46;100.00
77626;BME280;66794;43.764;10.436;2023-06-10T11:44:06;101517.31;;;21.32;100.00
77626;BME280;66794;43.764;10.436;2023-06-10T11:46:52;101536.16;;;21.28;100.00
77626;BME280;66794;43.764;10.436;2023-06-10T11:49:38;101524.16;;;21.41;100.00
77626;BME280;66794;43.764;10.436;2023-06-10T11:52:30;101517.59;;;21.42;100.00
77626;BME280;66794;43.764;10.436;2023-06-10T11:55:17;101516.38;;;21.38;100.00
77626;BME280;66794;43.764;10.436;2023-06-10T11:58:03;101519.81;;;22.00;100.00
77626;BME280;66794;43.764;10.436;2023-06-10T12:00:53;101536.34;;;22.48;100.00
77626;BME280;66794;43.764;10.436;2023-06-10T12:03:39;101521.22;;;22.51;100.00
77626;BME280;66794;43.764;10.436;2023-06-10T12:06:25;101522.56;;;22.60;100.00
77626;BME280;66794;43.764;10.436;2023-06-10T12:09:20;101519.84;;;22.83;100.00
77626;BME280;66794;43.764;10.436;2023-06-10T12:12:07;101504.06;;;23.43;100.00
77626;BME280;66794;43.764;10.436;2023-06-10T12:14:56;101482.22;;;23.29;100.00
77626;BME280;66794;43.764;10.436;2023-06-10T12:17:42;101479.75;;;24.25;100.00
77626;BME280;66794;43.764;10.436;2023-06-10T12:20:32;101415.91;;;23.70;100.00
77626;BME280;66794;43.764;10.436;2023-06-10T12:23:21;101420.75;;;24.08;100.00
77626;BME280;66794;43.764;10.436;2023-06-10T12:26:08;101423.06;;;24.45;100.00
77626;BME280;66794;43.764;10.436;2023-06-10T12:28:54;101420.13;;;25.51;100.00
77626;BME280;66794;43.764;10.436;2023-06-10T12:32:15;101392.94;;;24.48;100.00
77626;BME280;66794;43.764;10.436;2023-06-10T12:35:03;101376.72;;;24.23;100.00
77626;BME280;66794;43.764;10.436;2023-06-10T12:37:57;101400.09;;;24.83;100.00
77626;BME280;66794;43.764;10.436;2023-06-10T12:40:43;101363.34;;;25.09;100.00
77626;BME280;66794;43.764;10.436;2023-06-10T12:43:30;101380.28;;;25.35;100.00
77626;BME280;66794;43.764;10.436;2023-06-10T12:46:16;101374.03;;;25.23;100.00
77626;BME280;66794;43.764;10.436;2023-06-10T12:49:04;101384.81;;;25.68;100.00
77626;BME280;66794;43.764;10.436;2023-06-10T12:51:50;101376.13;;;25.59;100.00
77626;BME280;66794;43.764;10.436;2023-06-10T12:54:36;101360.03;;;24.69;100.00
77626;BME280;66794;43.764;10.436;2023-06-10T12:57:22;101375.06;;;25.65;100.00
77626;BME280;66794;43.764;10.436;2023-06-10T13:00:08;101373.66;;;25.63;100.00
77626;BME280;66794;43.764;10.436;2023-06-10T13:03:00;101370.91;;;24.75;100.00
77626;BME280;66794;43.764;10.436;2023-06-10T13:05:47;101374.72;;;25.57;100.00
77626;BME280;66794;43.764;10.436;2023-06-10T13:08:34;101369.81;;;24.76;100.00
77626;BME280;66794;43.764;10.436;2023-06-10T13:11:19;101394.28;;;24.46;100.00